createdAt,value
2019-05-13T00:00:16.252Z,13.80
2019-05-13T00:02:44.933Z,13.70
2019-05-13T00:05:14.851Z,13.70
2019-05-13T00:07:44.008Z,13.60
2019-05-13T00:10:14.621Z,13.50
2019-05-13T00:12:44.613Z,13.50
2019-05-13T00:15:14.774Z,13.50
2019-05-13T00:17:44.601Z,13.40
2019-05-13T00:20:14.376Z,13.40
2019-05-13T00:22:44.887Z,13.40
2019-05-13T00:25:14.522Z,13.40
2019-05-13T00:27:44.500Z,13.40
2019-05-13T00:30:14.660Z,13.30
2019-05-13T00:32:44.778Z,13.30
2019-05-13T00:35:14.366Z,13.10
2019-05-13T00:37:44.255Z,13.10
2019-05-13T00:40:14.355Z,13.10
2019-05-13T00:42:44.211Z,13.10
2019-05-13T00:45:14.537Z,13.10
2019-05-13T00:47:43.933Z,13.10
2019-05-13T00:50:14.327Z,13.00
2019-05-13T00:53:04.382Z,13.00
2019-05-13T00:55:34.465Z,13.00
2019-05-13T00:58:04.619Z,13.00
2019-05-13T01:00:34.354Z,13.00
2019-05-13T01:03:24.627Z,12.90
2019-05-13T01:05:53.519Z,12.90
2019-05-13T01:08:23.644Z,12.80
2019-05-13T01:10:53.677Z,12.80
2019-05-13T01:13:23.788Z,12.70
2019-05-13T01:15:54.388Z,12.70
2019-05-13T01:18:23.397Z,12.60
2019-05-13T01:20:53.824Z,12.60
2019-05-13T01:23:24.028Z,12.40
2019-05-13T01:25:54.466Z,12.40
2019-05-13T01:28:23.928Z,12.30
2019-05-13T01:30:57.861Z,12.30
2019-05-13T01:33:26.502Z,12.30
2019-05-13T01:35:55.159Z,12.20
2019-05-13T01:38:24.208Z,12.10
2019-05-13T01:40:53.917Z,12.10
2019-05-13T01:43:24.433Z,12.10
2019-05-13T01:45:53.748Z,12.20
2019-05-13T01:48:24.136Z,12.10
2019-05-13T01:50:53.525Z,12.10
2019-05-13T01:53:24.218Z,12.10
2019-05-13T01:55:53.250Z,12.10
2019-05-13T01:58:23.614Z,12.00
2019-05-13T02:00:54.947Z,12.00
2019-05-13T02:03:24.657Z,11.90
2019-05-13T02:05:54.437Z,11.80
2019-05-13T02:08:24.490Z,11.70
2019-05-13T02:10:55.038Z,11.70
2019-05-13T02:13:25.216Z,11.70
2019-05-13T02:15:55.421Z,11.70
2019-05-13T02:18:24.897Z,11.60
2019-05-13T02:20:55.429Z,11.60
2019-05-13T02:23:24.408Z,11.50
2019-05-13T02:26:13.601Z,11.50
2019-05-13T02:28:43.594Z,11.50
2019-05-13T02:31:41.549Z,11.50
2019-05-13T02:34:02.715Z,11.40
2019-05-13T02:36:32.994Z,11.30
2019-05-13T02:39:02.678Z,11.20
2019-05-13T02:41:34.204Z,11.20
2019-05-13T02:44:03.549Z,11.00
2019-05-13T02:46:33.810Z,11.00
2019-05-13T02:49:03.156Z,11.00
2019-05-13T02:51:32.814Z,11.00
2019-05-13T02:54:03.515Z,11.00
2019-05-13T02:56:32.994Z,10.90
2019-05-13T02:59:03.778Z,10.90
2019-05-13T03:01:34.083Z,10.80
2019-05-13T03:04:03.269Z,10.80
2019-05-13T03:06:33.243Z,10.90
2019-05-13T03:09:03.124Z,10.90
2019-05-13T03:11:33.293Z,10.90
2019-05-13T03:14:03.572Z,10.80
2019-05-13T03:16:34.101Z,10.80
2019-05-13T03:19:03.047Z,10.80
2019-05-13T03:21:32.609Z,10.50
2019-05-13T03:24:03.527Z,10.50
2019-05-13T03:26:32.290Z,10.50
2019-05-13T03:29:02.774Z,10.60
2019-05-13T03:31:35.892Z,10.60
2019-05-13T03:34:06.434Z,10.60
2019-05-13T03:36:36.243Z,10.60
2019-05-13T03:39:10.375Z,10.60
2019-05-13T03:41:34.984Z,10.60
2019-05-13T03:44:06.711Z,10.60
2019-05-13T03:46:38.347Z,10.40
2019-05-13T03:49:13.282Z,10.40
2019-05-13T03:51:42.881Z,10.30
2019-05-13T03:54:12.877Z,10.20
2019-05-13T03:56:42.574Z,10.20
2019-05-13T03:59:13.283Z,10.20
2019-05-13T04:01:42.819Z,10.20
2019-05-13T04:04:12.753Z,10.20
2019-05-13T04:06:42.911Z,10.20
2019-05-13T04:09:25.188Z,10.20
2019-05-13T04:11:43.073Z,10.20
2019-05-13T04:14:12.590Z,10.20
2019-05-13T04:16:42.873Z,10.30
2019-05-13T04:19:12.392Z,10.20
2019-05-13T04:21:43.016Z,10.30
2019-05-13T04:24:12.337Z,10.30
2019-05-13T04:26:43.262Z,10.20
2019-05-13T04:29:13.311Z,10.20
2019-05-13T04:31:42.453Z,10.20
2019-05-13T04:34:12.375Z,10.10
2019-05-13T04:36:43.633Z,10.10
2019-05-13T04:39:12.883Z,10.20
2019-05-13T04:41:42.486Z,10.10
2019-05-13T04:44:13.019Z,10.20
2019-05-13T04:46:43.449Z,10.20
2019-05-13T04:49:12.733Z,10.20
2019-05-13T04:51:42.183Z,10.20
2019-05-13T04:54:13.006Z,10.20
2019-05-13T04:56:42.349Z,10.10
2019-05-13T04:59:12.453Z,10.20
2019-05-13T05:02:17.842Z,10.10
2019-05-13T05:04:58.322Z,10.10
2019-05-13T05:07:36.154Z,10.00
2019-05-13T05:10:34.670Z,10.00
2019-05-13T05:13:17.151Z,10.10
2019-05-13T05:16:23.806Z,10.10
2019-05-13T05:19:12.299Z,10.20
2019-05-13T05:22:13.484Z,10.20
2019-05-13T05:25:04.160Z,10.30
2019-05-13T05:28:02.156Z,10.30
2019-05-13T05:31:11.568Z,10.50
2019-05-13T05:34:06.540Z,10.50
2019-05-13T05:37:01.395Z,10.60
2019-05-13T05:39:31.565Z,10.70
2019-05-13T05:42:02.198Z,10.80
2019-05-13T05:44:33.136Z,11.00
2019-05-13T05:47:03.691Z,11.00
2019-05-13T05:49:32.882Z,11.20
2019-05-13T05:52:05.051Z,11.10
2019-05-13T05:54:39.053Z,11.20
2019-05-13T05:57:08.364Z,11.30
2019-05-13T05:59:38.418Z,11.40
2019-05-13T06:02:08.706Z,11.50
2019-05-13T06:04:38.526Z,11.60
2019-05-13T06:07:07.569Z,11.80
2019-05-13T06:09:36.248Z,11.80
2019-05-13T06:12:05.084Z,11.90
2019-05-13T06:14:33.822Z,12.00
2019-05-13T06:17:02.959Z,12.10
2019-05-13T06:19:32.307Z,12.10
2019-05-13T06:22:06.333Z,12.20
2019-05-13T06:24:34.942Z,12.30
2019-05-13T06:27:04.682Z,12.20
2019-05-13T06:29:34.024Z,12.40
2019-05-13T06:32:18.224Z,12.50
2019-05-13T06:34:33.959Z,12.70
2019-05-13T06:37:02.717Z,12.70
2019-05-13T06:39:31.967Z,12.80
2019-05-13T06:42:02.798Z,12.80
2019-05-13T06:44:31.776Z,12.90
2019-05-13T06:47:02.646Z,13.00
2019-05-13T06:49:32.262Z,13.00
2019-05-13T06:52:02.081Z,13.10
2019-05-13T06:54:33.304Z,13.20
2019-05-13T06:57:04.325Z,13.40
2019-05-13T06:59:31.897Z,13.60
2019-05-13T07:02:02.497Z,13.80
2019-05-13T07:04:32.685Z,14.00
2019-05-13T07:07:12.781Z,14.20
2019-05-13T07:09:32.491Z,14.40
2019-05-13T07:12:03.182Z,14.50
2019-05-13T07:14:32.566Z,14.70
2019-05-13T07:17:05.437Z,14.90
2019-05-13T07:19:34.054Z,14.90
2019-05-13T07:22:03.314Z,14.90
2019-05-13T07:24:32.832Z,15.00
2019-05-13T07:27:22.935Z,15.00
2019-05-13T07:29:55.562Z,14.90
2019-05-13T07:32:23.515Z,15.00
2019-05-13T07:34:53.160Z,15.20
2019-05-13T07:37:22.585Z,15.20
2019-05-13T07:39:53.041Z,15.40
2019-05-13T07:42:22.286Z,15.60
2019-05-13T07:44:52.209Z,15.80
2019-05-13T07:47:22.347Z,15.90
2019-05-13T07:49:51.645Z,15.80
2019-05-13T07:52:22.751Z,15.70
2019-05-13T07:54:52.059Z,15.90
2019-05-13T07:57:22.449Z,15.90
2019-05-13T07:59:52.389Z,16.00
2019-05-13T08:02:21.669Z,16.00
2019-05-13T08:04:52.934Z,16.00
2019-05-13T08:07:22.611Z,16.10
2019-05-13T08:09:55.662Z,16.20
2019-05-13T08:12:22.539Z,16.20
2019-05-13T08:14:57.008Z,16.30
2019-05-13T08:17:26.522Z,16.40
2019-05-13T08:19:55.233Z,16.40
2019-05-13T08:22:24.641Z,16.40
2019-05-13T08:24:54.436Z,16.40
2019-05-13T08:27:30.307Z,16.40
2019-05-13T08:29:53.592Z,16.30
2019-05-13T08:32:27.975Z,16.10
2019-05-13T08:35:01.568Z,16.10
2019-05-13T08:37:27.003Z,16.10
2019-05-13T08:39:57.191Z,16.00
2019-05-13T08:42:25.805Z,16.00
2019-05-13T08:44:54.558Z,16.10
2019-05-13T08:47:23.110Z,16.20
2019-05-13T08:49:52.250Z,16.40
2019-05-13T08:52:21.935Z,16.40
2019-05-13T08:54:52.537Z,16.40
2019-05-13T08:57:22.275Z,16.50
2019-05-13T08:59:51.710Z,16.50
2019-05-13T09:02:22.157Z,16.50
2019-05-13T09:04:51.569Z,16.60
2019-05-13T09:07:24.240Z,16.60
2019-05-13T09:09:51.670Z,16.50
2019-05-13T09:12:29.614Z,16.60
2019-05-13T09:14:52.506Z,16.50
2019-05-13T09:17:21.403Z,16.40
2019-05-13T09:19:51.944Z,16.50
2019-05-13T09:22:21.396Z,16.50
2019-05-13T09:24:52.845Z,16.50
2019-05-13T09:27:22.584Z,16.60
2019-05-13T09:29:52.795Z,16.50
2019-05-13T09:32:33.853Z,16.60
2019-05-13T09:35:03.121Z,16.60
2019-05-13T09:37:32.592Z,16.50
2019-05-13T09:40:02.430Z,16.40
2019-05-13T09:42:47.073Z,16.30
2019-05-13T09:45:02.334Z,16.20
2019-05-13T09:47:32.159Z,16.20
2019-05-13T09:50:01.138Z,16.20
2019-05-13T09:52:32.030Z,16.20
2019-05-13T09:55:03.027Z,16.30
2019-05-13T09:57:32.127Z,16.30
2019-05-13T10:00:01.770Z,16.40
2019-05-13T10:02:32.078Z,16.50
2019-05-13T10:05:03.138Z,16.60
2019-05-13T10:07:31.995Z,16.50
2019-05-13T10:10:01.890Z,16.50
2019-05-13T10:12:31.981Z,16.50
2019-05-13T10:15:02.151Z,16.30
2019-05-13T10:17:31.912Z,16.40
2019-05-13T10:20:00.919Z,16.30
2019-05-13T10:22:31.783Z,16.30
2019-05-13T10:25:02.286Z,16.30
2019-05-13T10:27:32.529Z,16.20
2019-05-13T10:30:02.381Z,16.10
2019-05-13T10:32:32.518Z,16.00
2019-05-13T10:35:03.324Z,16.00
2019-05-13T10:37:32.595Z,16.10
2019-05-13T10:40:03.309Z,16.10
2019-05-13T10:42:31.829Z,16.10
2019-05-13T10:45:02.481Z,16.10
2019-05-13T10:47:30.751Z,16.10
2019-05-13T10:50:02.575Z,16.20
2019-05-13T10:52:32.261Z,16.20
2019-05-13T10:55:01.911Z,16.10
2019-05-13T10:57:31.815Z,16.10
2019-05-13T11:00:03.410Z,16.10
2019-05-13T11:02:32.906Z,16.20
2019-05-13T11:05:03.213Z,16.20
2019-05-13T11:07:32.223Z,16.30
2019-05-13T11:10:02.849Z,16.30
2019-05-13T11:12:33.554Z,16.40
2019-05-13T11:15:03.046Z,16.30
2019-05-13T11:17:33.231Z,16.20
2019-05-13T11:20:03.998Z,16.20
2019-05-13T11:22:32.821Z,16.30
2019-05-13T11:25:01.697Z,16.30
2019-05-13T11:27:32.354Z,16.30
2019-05-13T11:30:05.530Z,16.30
2019-05-13T11:32:32.914Z,16.40
2019-05-13T11:35:02.402Z,16.50
2019-05-13T11:37:32.066Z,16.50
2019-05-13T11:40:03.833Z,16.50
2019-05-13T11:42:39.553Z,16.50
2019-05-13T11:45:11.696Z,16.50
2019-05-13T11:47:52.214Z,16.50
2019-05-13T11:50:22.337Z,16.50
2019-05-13T11:52:52.515Z,16.40
2019-05-13T11:55:23.016Z,16.40
2019-05-13T11:57:53.137Z,16.40
2019-05-13T12:00:42.682Z,16.50
2019-05-13T12:03:11.457Z,16.50
2019-05-13T12:05:42.159Z,16.50
2019-05-13T12:08:12.659Z,16.50
2019-05-13T12:10:43.929Z,16.50
2019-05-13T12:13:12.508Z,16.60
2019-05-13T12:15:48.748Z,16.60
2019-05-13T12:18:13.798Z,16.70
2019-05-13T12:20:42.827Z,16.60
2019-05-13T12:23:18.955Z,16.60
2019-05-13T12:25:47.565Z,16.70
2019-05-13T12:28:16.161Z,16.70
2019-05-13T12:30:45.049Z,16.70
2019-05-13T12:33:14.802Z,16.70
2019-05-13T12:35:44.959Z,16.70
2019-05-13T12:38:13.916Z,16.70
2019-05-13T12:40:43.186Z,16.70
2019-05-13T12:43:13.238Z,16.70
2019-05-13T12:45:43.392Z,16.70
2019-05-13T12:48:14.112Z,16.60
2019-05-13T12:50:43.404Z,16.60
2019-05-13T12:53:12.945Z,16.60
2019-05-13T12:55:41.775Z,16.60
2019-05-13T12:58:12.074Z,16.70
2019-05-13T13:00:43.397Z,16.70
2019-05-13T13:03:13.288Z,16.70
2019-05-13T13:05:43.210Z,16.70
2019-05-13T13:08:21.699Z,16.70
2019-05-13T13:10:42.469Z,16.60
2019-05-13T13:13:11.508Z,16.60
2019-05-13T13:15:43.471Z,16.70
2019-05-13T13:18:14.501Z,16.80
2019-05-13T13:20:42.377Z,16.80
2019-05-13T13:23:12.858Z,16.80
2019-05-13T13:25:44.169Z,16.80
2019-05-13T13:28:15.495Z,16.80
2019-05-13T13:31:04.128Z,16.90
2019-05-13T13:33:34.507Z,17.00
2019-05-13T13:36:05.245Z,17.10
2019-05-13T13:38:33.989Z,17.10
2019-05-13T13:41:03.909Z,17.10
2019-05-13T13:43:37.039Z,17.10
2019-05-13T13:46:11.573Z,17.10
2019-05-13T13:48:33.695Z,17.10
2019-05-13T13:51:04.795Z,17.10
2019-05-13T13:53:33.308Z,17.30
2019-05-13T13:56:02.742Z,17.20
2019-05-13T13:58:32.753Z,17.20
2019-05-13T14:01:10.478Z,17.10
2019-05-13T14:03:33.838Z,17.10
2019-05-13T14:06:06.144Z,17.20
2019-05-13T14:08:36.887Z,17.30
2019-05-13T14:11:05.475Z,17.20
2019-05-13T14:13:34.100Z,17.30
2019-05-13T14:16:02.755Z,17.30
2019-05-13T14:18:31.883Z,17.20
2019-05-13T14:21:03.137Z,17.20
2019-05-13T14:23:31.799Z,17.20
2019-05-13T14:26:01.157Z,17.10
2019-05-13T14:28:32.526Z,17.10
2019-05-13T14:31:01.889Z,17.20
2019-05-13T14:33:32.636Z,17.30
2019-05-13T14:36:01.860Z,17.30
2019-05-13T14:38:32.677Z,17.40
2019-05-13T14:41:03.019Z,17.40
2019-05-13T14:43:32.197Z,17.40
2019-05-13T14:46:02.467Z,17.40
2019-05-13T14:48:32.876Z,17.30
2019-05-13T14:51:02.171Z,17.30
2019-05-13T14:53:32.070Z,17.30
2019-05-13T14:56:03.040Z,17.30
2019-05-13T14:58:41.686Z,17.30
2019-05-13T15:01:14.953Z,17.30
2019-05-13T15:03:34.324Z,17.30
2019-05-13T15:06:03.444Z,17.30
2019-05-13T15:08:33.096Z,17.30
2019-05-13T15:11:02.099Z,17.30
2019-05-13T15:13:31.921Z,17.30
2019-05-13T15:16:01.357Z,17.40
2019-05-13T15:18:32.537Z,17.50
2019-05-13T15:21:01.916Z,17.60
2019-05-13T15:23:32.182Z,17.60
2019-05-13T15:26:02.390Z,17.60
2019-05-13T15:28:31.880Z,17.50
2019-05-13T15:31:00.865Z,17.40
2019-05-13T15:33:32.603Z,17.40
2019-05-13T15:36:02.286Z,17.40
2019-05-13T15:38:32.158Z,17.30
2019-05-13T15:41:01.901Z,17.30
2019-05-13T15:43:31.849Z,17.30
2019-05-13T15:46:01.726Z,17.30
2019-05-13T15:48:31.566Z,17.30
2019-05-13T15:51:02.145Z,17.30
2019-05-13T15:53:32.018Z,17.40
2019-05-13T15:56:02.533Z,17.50
2019-05-13T15:58:39.393Z,17.40
2019-05-13T16:01:03.106Z,17.50
2019-05-13T16:03:31.916Z,17.40
2019-05-13T16:06:01.945Z,17.40
2019-05-13T16:08:31.836Z,17.40
2019-05-13T16:11:02.402Z,17.40
2019-05-13T16:13:31.943Z,17.40
2019-05-13T16:16:01.668Z,17.40
2019-05-13T16:18:31.620Z,17.40
2019-05-13T16:21:01.586Z,17.30
2019-05-13T16:23:32.282Z,17.40
2019-05-13T16:26:01.729Z,17.40
2019-05-13T16:28:32.672Z,17.40
2019-05-13T16:31:04.924Z,17.40
2019-05-13T16:33:31.459Z,17.40
2019-05-13T16:36:02.734Z,17.30
2019-05-13T16:38:32.905Z,17.40
2019-05-13T16:41:01.599Z,17.30
2019-05-13T16:43:31.969Z,17.40
2019-05-13T16:46:01.216Z,17.40
2019-05-13T16:48:32.093Z,17.40
2019-05-13T16:51:00.150Z,17.40
2019-05-13T16:53:31.248Z,17.40
2019-05-13T16:56:01.495Z,17.40
2019-05-13T16:58:29.311Z,17.30
2019-05-13T17:00:58.334Z,17.30
2019-05-13T17:03:26.895Z,17.20
2019-05-13T17:05:55.897Z,17.20
2019-05-13T17:08:24.673Z,17.30
2019-05-13T17:10:53.269Z,17.30
2019-05-13T17:13:22.215Z,17.30
2019-05-13T17:15:52.262Z,17.30
2019-05-13T17:18:22.068Z,17.10
2019-05-13T17:20:52.062Z,17.10
2019-05-13T17:23:21.145Z,17.00
2019-05-13T17:25:52.045Z,16.90
2019-05-13T17:28:21.863Z,16.90
2019-05-13T17:31:11.526Z,16.90
2019-05-13T17:33:39.879Z,17.00
2019-05-13T17:36:08.431Z,17.00
2019-05-13T17:38:37.107Z,17.00
2019-05-13T17:41:06.058Z,17.10
2019-05-13T17:43:34.677Z,17.00
2019-05-13T17:46:03.553Z,17.00
2019-05-13T17:48:33.243Z,17.00
2019-05-13T17:51:02.062Z,16.90
2019-05-13T17:53:32.520Z,16.80
2019-05-13T17:56:02.427Z,16.80
2019-05-13T17:58:31.516Z,16.80
2019-05-13T18:01:01.612Z,16.80
2019-05-13T18:03:32.332Z,16.80
2019-05-13T18:06:02.323Z,16.70
2019-05-13T18:08:32.183Z,16.60
2019-05-13T18:11:02.545Z,16.70
2019-05-13T18:13:32.023Z,16.70
2019-05-13T18:16:02.451Z,16.70
2019-05-13T18:18:40.469Z,16.70
2019-05-13T18:21:01.834Z,16.70
2019-05-13T18:23:30.715Z,16.70
2019-05-13T18:26:05.038Z,16.70
2019-05-13T18:28:33.617Z,16.60
2019-05-13T18:31:02.170Z,16.60
2019-05-13T18:33:31.989Z,16.60
2019-05-13T18:36:02.128Z,16.60
2019-05-13T18:38:31.295Z,16.50
2019-05-13T18:41:01.973Z,16.50
2019-05-13T18:43:32.108Z,16.40
2019-05-13T18:46:02.083Z,16.50
2019-05-13T18:48:32.251Z,16.50
2019-05-13T18:51:02.622Z,16.40
2019-05-13T18:53:32.067Z,16.40
2019-05-13T18:56:02.005Z,16.40
2019-05-13T18:58:31.658Z,16.40
2019-05-13T19:01:01.471Z,16.30
2019-05-13T19:03:32.311Z,16.30
2019-05-13T19:06:00.575Z,16.20
2019-05-13T19:08:31.865Z,16.10
2019-05-13T19:11:01.218Z,16.00
2019-05-13T19:13:32.428Z,15.90
2019-05-13T19:16:02.377Z,15.90
2019-05-13T19:18:35.786Z,15.80
2019-05-13T19:21:04.375Z,15.80
2019-05-13T19:23:33.042Z,15.80
2019-05-13T19:26:02.085Z,15.70
2019-05-13T19:28:36.256Z,15.70
2019-05-13T19:31:04.879Z,15.60
2019-05-13T19:33:33.742Z,15.60
2019-05-13T19:36:02.420Z,15.60
2019-05-13T19:38:31.868Z,15.50
2019-05-13T19:41:01.795Z,15.50
2019-05-13T19:43:31.421Z,15.50
2019-05-13T19:46:01.478Z,15.40
2019-05-13T19:48:33.468Z,15.40
2019-05-13T19:51:03.566Z,15.40
2019-05-13T19:53:32.203Z,15.40
2019-05-13T19:56:01.544Z,15.40
2019-05-13T19:58:32.387Z,15.30
2019-05-13T20:01:00.978Z,15.10
2019-05-13T20:03:31.707Z,15.10
2019-05-13T20:06:01.916Z,15.00
2019-05-13T20:08:32.026Z,15.00
2019-05-13T20:11:02.132Z,14.90
2019-05-13T20:13:30.879Z,14.90
2019-05-13T20:16:01.431Z,14.90
2019-05-13T20:18:31.975Z,14.90
2019-05-13T20:21:01.249Z,14.90
2019-05-13T20:23:31.968Z,14.80
2019-05-13T20:26:00.414Z,14.70
2019-05-13T20:28:31.482Z,14.70
2019-05-13T20:31:01.758Z,14.60
2019-05-13T20:33:31.975Z,14.50
2019-05-13T20:36:01.617Z,14.60
2019-05-13T20:38:31.652Z,14.50
2019-05-13T20:41:01.314Z,14.50
2019-05-13T20:43:32.548Z,14.40
2019-05-13T20:46:01.951Z,14.30
2019-05-13T20:48:32.032Z,14.20
2019-05-13T20:51:02.597Z,14.20
2019-05-13T20:53:31.402Z,14.10
2019-05-13T20:56:01.793Z,14.00
2019-05-13T20:58:33.307Z,14.10
2019-05-13T21:01:02.582Z,13.90
2019-05-13T21:03:33.280Z,14.00
2019-05-13T21:06:02.049Z,13.80
2019-05-13T21:08:32.287Z,13.90
2019-05-13T21:11:02.240Z,13.70
2019-05-13T21:13:31.884Z,13.80
2019-05-13T21:16:02.538Z,13.70
2019-05-13T21:18:31.778Z,13.70
2019-05-13T21:21:00.851Z,13.60
2019-05-13T21:23:35.196Z,13.60
2019-05-13T21:26:05.127Z,13.60
2019-05-13T21:28:33.866Z,13.40
2019-05-13T21:31:02.404Z,13.60
2019-05-13T21:33:32.223Z,13.50
2019-05-13T21:36:01.807Z,13.40
2019-05-13T21:38:32.428Z,13.40
2019-05-13T21:41:01.811Z,13.40
2019-05-13T21:43:32.333Z,13.30
2019-05-13T21:46:01.967Z,13.30
2019-05-13T21:48:36.598Z,13.40
2019-05-13T21:51:05.204Z,13.30
2019-05-13T21:53:33.896Z,13.20
2019-05-13T21:56:02.607Z,13.00
2019-05-13T21:58:36.735Z,12.80
2019-05-13T22:01:04.970Z,12.80
2019-05-13T22:03:33.700Z,12.50
2019-05-13T22:06:02.555Z,12.40
2019-05-13T22:08:32.237Z,12.40
2019-05-13T22:11:06.904Z,12.50
2019-05-13T22:13:35.866Z,12.60
2019-05-13T22:16:04.522Z,12.70
2019-05-13T22:18:33.115Z,12.70
2019-05-13T22:21:01.822Z,12.60
2019-05-13T22:23:32.165Z,12.60
2019-05-13T22:26:01.830Z,12.40
2019-05-13T22:28:31.426Z,12.40
2019-05-13T22:31:01.769Z,12.50
2019-05-13T22:33:32.392Z,12.40
2019-05-13T22:36:01.804Z,12.40
2019-05-13T22:38:32.287Z,12.40
2019-05-13T22:41:01.943Z,12.40
2019-05-13T22:43:32.073Z,12.20
2019-05-13T22:46:01.075Z,12.20
2019-05-13T22:48:31.785Z,12.20
2019-05-13T22:51:01.371Z,12.10
2019-05-13T22:53:31.937Z,12.10
2019-05-13T22:56:01.113Z,12.20
2019-05-13T22:58:32.444Z,12.20
2019-05-13T23:01:02.527Z,12.20
2019-05-13T23:03:32.384Z,12.10
2019-05-13T23:06:01.644Z,12.10
2019-05-13T23:08:40.914Z,12.20
2019-05-13T23:11:09.496Z,12.10
2019-05-13T23:13:38.038Z,12.10
2019-05-13T23:16:06.768Z,12.00
2019-05-13T23:18:35.406Z,12.10
2019-05-13T23:21:04.068Z,12.00
2019-05-13T23:23:32.635Z,11.90
2019-05-13T23:26:01.367Z,11.90
2019-05-13T23:28:32.096Z,12.00
2019-05-13T23:31:01.710Z,11.90
2019-05-13T23:33:31.372Z,11.80
2019-05-13T23:36:01.505Z,11.70
2019-05-13T23:38:31.988Z,11.60
2019-05-13T23:41:02.079Z,11.60
2019-05-13T23:43:31.209Z,11.60
2019-05-13T23:46:01.188Z,11.60
2019-05-13T23:48:32.121Z,11.40
2019-05-13T23:51:01.319Z,11.20
2019-05-13T23:53:31.529Z,11.10
2019-05-13T23:56:02.011Z,11.00
2019-05-13T23:58:32.115Z,10.90
